Salem, IL

8:40 PM CDT on March 25, 2017 (GMT -0500)
Salem-Leckrone

Weather History for KSLO - February, 2012

Change the Weather History Date:

Friday, February 3, 2012

  Actual Average Record
Temperature  
Mean Temperature 46 °F -  
Max Temperature 54 °F 38 °F 63 °F (1992)
Min Temperature 37 °F 20 °F -7 °F (1965)
Degree Days  
Heating Degree Days 20    
Moisture  
Dew Point 32 °F    
Average Humidity 60    
Maximum Humidity 77    
Minimum Humidity 36    
Precipitation  
Precipitation 0.00 in - - ()
Sea Level Pressure  
Sea Level Pressure 30.31 in    
Wind  
Wind Speed 4 mph (East)    
Max Wind Speed 12 mph    
Max Gust Speed 16 mph    
Visibility 8 miles    
Events Rain    
Averages and records for this station are not official NWS values.
T = Trace of Precipitation, MM = Missing Value Source: NWS Daily Summary

Daily Weather History Graph

Daily Weather History Graph

Search for Another Location

Airport or City:

Trip Planner

Search our weather history database for the weather conditions in past years. The results will help you decide how hot, cold, wet, or windy it might be!

Date:

Astronomy

Feb. 03, 2012 Rise Set
Actual Time 7:00 AM CST 5:19 PM CST
Civil Twilight 6:32 AM CST 5:47 PM CST
Nautical Twilight 6:00 AM CST 6:19 PM CST
Astronomical Twilight 5:29 AM CST 6:50 PM CST
Moon 1:22 PM CST (2/3) 3:34 AM CST (2/3)
Length of Visible Light 11h 15m
Length of Day
10h 19m
Waxing Gibbous, 82% of the Moon is Illuminated
Feb 3
Waxing Gibbous
Feb 7
Full
Feb 14
Last Quarter
Feb 21
New
Feb 29
First Quarter

Hourly Weather History & Observations

Time (CST) Temp. Windchill Dew Point Humidity Pressure Visibility Wind Dir Wind Speed Gust Speed Precip Events Conditions
12:15 AM 41.7 °F - 32.2 °F 69% 30.36 in 10.0 mi Calm Calm - N/A   Clear
12:35 AM 41.0 °F 39.0 °F 32.2 °F 71% 30.35 in 10.0 mi East 3.5 mph - N/A   Clear
12:55 AM 41.2 °F 39.2 °F 32.4 °F 71% 30.35 in 10.0 mi East 3.5 mph - N/A   Clear
1:15 AM 41.0 °F 39.0 °F 32.2 °F 71% 30.35 in 10.0 mi East 3.5 mph - N/A   Clear
1:35 AM 42.1 °F 39.2 °F 32.0 °F 67% 30.35 in 10.0 mi East 4.6 mph - N/A   Clear
1:55 AM 42.1 °F - 32.0 °F 67% 30.35 in 10.0 mi Calm Calm - N/A   Clear
2:15 AM 41.0 °F 38.0 °F 32.0 °F 70% 30.36 in 10.0 mi East 4.6 mph - N/A   Clear
2:35 AM 40.8 °F 37.8 °F 32.0 °F 71% 30.37 in 10.0 mi East 4.6 mph - N/A   Clear
2:55 AM 41.0 °F 38.0 °F 32.0 °F 70% 30.36 in 10.0 mi East 4.6 mph - N/A   Clear
3:15 AM 40.3 °F 36.3 °F 32.0 °F 72% 30.35 in 10.0 mi East 5.8 mph - N/A   Clear
3:35 AM 41.0 °F 37.1 °F 31.8 °F 70% 30.35 in 10.0 mi East 5.8 mph - N/A   Clear
3:55 AM 40.5 °F 37.3 °F 31.6 °F 71% 30.35 in 10.0 mi East 4.6 mph - N/A   Clear
4:15 AM 40.3 °F 37.1 °F 31.3 °F 70% 30.35 in 10.0 mi East 4.6 mph - N/A   Clear
4:35 AM 40.1 °F 38.0 °F 31.1 °F 70% 30.36 in 7.0 mi ENE 3.5 mph - N/A   Clear
4:55 AM 39.2 °F - 32.0 °F 75% 30.36 in 7.0 mi Calm Calm - N/A   Clear
5:15 AM 39.0 °F - 31.1 °F 73% 30.36 in 5.0 mi Calm Calm - N/A   Haze
5:35 AM 37.6 °F 35.1 °F 31.1 °F 77% 30.35 in 3.0 mi ENE 3.5 mph - N/A   Haze
5:55 AM 37.8 °F 34.2 °F 31.3 °F 77% 30.35 in 5.0 mi East 4.6 mph - N/A   Haze
6:15 AM 38.5 °F 34.1 °F 31.5 °F 76% 30.34 in 7.0 mi East 5.8 mph - N/A   Clear
6:35 AM 38.7 °F 34.3 °F 31.6 °F 76% 30.34 in 7.0 mi East 5.8 mph - N/A   Clear
6:55 AM 39.2 °F 35.9 °F 32.0 °F 75% 30.34 in 7.0 mi East 4.6 mph - N/A   Clear
7:15 AM 39.2 °F 35.0 °F 31.5 °F 74% 30.34 in 7.0 mi East 5.8 mph - N/A   Clear
7:35 AM 39.2 °F 35.0 °F 32.0 °F 75% 30.33 in 5.0 mi East 5.8 mph - N/A   Haze
7:55 AM 39.6 °F 35.4 °F 31.8 °F 74% 30.34 in 7.0 mi East 5.8 mph - N/A   Clear
8:15 AM 40.3 °F 38.2 °F 32.0 °F 72% 30.35 in 7.0 mi East 3.5 mph - N/A   Clear
8:35 AM 41.0 °F 38.0 °F 32.0 °F 70% 30.36 in 7.0 mi East 4.6 mph - N/A   Clear
8:55 AM 41.7 °F 38.0 °F 32.2 °F 69% 30.35 in 5.0 mi East 5.8 mph - N/A   Haze
9:15 AM 43.0 °F 39.5 °F 32.9 °F 68% 30.35 in 7.0 mi East 5.8 mph - N/A   Clear
9:35 AM 44.1 °F 40.8 °F 32.9 °F 65% 30.34 in 10.0 mi ESE 5.8 mph - N/A   Clear
9:55 AM 45.3 °F 43.0 °F 33.8 °F 64% 30.35 in 10.0 mi East 4.6 mph - N/A   Clear
10:15 AM 46.8 °F - 34.3 °F 62% 30.35 in 10.0 mi ESE 6.9 mph - N/A   Clear
10:35 AM 46.4 °F 43.5 °F 33.8 °F 62% 30.34 in 7.0 mi East 5.8 mph - N/A   Clear
10:55 AM 48.7 °F - 34.5 °F 58% 30.34 in 10.0 mi East 10.4 mph 16.1 mph N/A   Clear
11:15 AM 49.1 °F - 34.2 °F 56% 30.33 in 7.0 mi ESE 8.1 mph - N/A   Clear
11:35 AM 51.1 °F - 34.3 °F 53% 30.32 in 10.0 mi ESE 8.1 mph - N/A   Clear
11:55 AM 52.2 °F - 32.5 °F 47% 30.31 in 10.0 mi ESE 5.8 mph - N/A   Clear
12:15 PM 52.5 °F - 32.0 °F 46% 30.30 in 10.0 mi East 8.1 mph - N/A   Clear
12:35 PM 52.9 °F - 31.1 °F 43% 30.30 in 10.0 mi East 5.8 mph - N/A   Clear
12:55 PM 53.8 °F - 31.6 °F 43% 30.30 in 10.0 mi East 6.9 mph - N/A   Clear
1:15 PM 54.5 °F - 30.2 °F 39% 30.29 in 10.0 mi East 5.8 mph - N/A   Clear
1:35 PM 55.4 °F - 28.4 °F 36% 30.28 in 10.0 mi ESE 5.8 mph - N/A   Clear
1:55 PM 54.1 °F - 29.7 °F 39% 30.27 in 10.0 mi ESE 6.9 mph - N/A   Scattered Clouds
2:15 PM 54.5 °F - 29.5 °F 38% 30.26 in 10.0 mi East 4.6 mph - N/A   Clear
2:35 PM 53.8 °F - 30.6 °F 41% 30.26 in 10.0 mi East 5.8 mph - N/A   Clear
2:55 PM 53.6 °F - 30.6 °F 41% 30.25 in 10.0 mi East 11.5 mph 16.1 mph N/A   Mostly Cloudy
3:15 PM 53.6 °F - 30.6 °F 41% 30.25 in 10.0 mi East 5.8 mph - N/A   Mostly Cloudy
3:35 PM 53.2 °F - 32.2 °F 45% 30.25 in 10.0 mi East 4.6 mph - N/A   Mostly Cloudy
3:55 PM 52.7 °F - 32.2 °F 46% 30.24 in 10.0 mi East 8.1 mph - N/A   Mostly Cloudy
4:15 PM 52.5 °F - 32.9 °F 47% 30.24 in 7.0 mi East 6.9 mph - N/A Rain Light Rain
4:35 PM 51.8 °F - 33.3 °F 49% 30.23 in 2.0 mi East 6.9 mph - N/A   Haze
4:55 PM 51.8 °F - 33.8 °F 50% 30.23 in 2.5 mi East 5.8 mph - N/A   Haze
5:15 PM 52.2 °F - 34.3 °F 51% 30.22 in 2.0 mi East 8.1 mph - N/A   Haze
5:35 PM 51.3 °F - 33.8 °F 51% 30.23 in 3.0 mi East 6.9 mph - N/A   Haze
5:55 PM 51.1 °F - 34.2 °F 52% 30.23 in 3.0 mi East 5.8 mph - N/A   Haze
6:15 PM 50.2 °F - 35.8 °F 58% 30.22 in 10.0 mi East 6.9 mph - N/A Rain Light Rain
6:35 PM 50.2 °F - 35.4 °F 57% 30.22 in 10.0 mi East 6.9 mph - N/A   Overcast
6:55 PM 50.4 °F - 35.6 °F 57% 30.22 in 10.0 mi East 5.8 mph - N/A Rain Light Rain
7:15 PM 51.8 °F - 35.6 °F 54% 30.22 in 10.0 mi East 4.6 mph - N/A   Overcast
7:35 PM 50.0 °F - 36.0 °F 59% 30.21 in 10.0 mi ESE 5.8 mph - N/A Rain Rain
7:55 PM 48.2 °F - 37.8 °F 67% 30.21 in 4.0 mi East 6.9 mph - N/A Rain Rain
8:15 PM 47.1 °F - 39.0 °F 73% 30.22 in 4.0 mi ESE 6.9 mph - N/A Rain Rain
8:35 PM 46.2 °F 42.7 °F 40.3 °F 80% 30.21 in 4.0 mi East 6.9 mph - 0.01 in Rain Rain
8:55 PM 45.7 °F 42.7 °F 42.8 °F 90% 30.21 in 5.0 mi East 5.8 mph - 0.01 in Rain Rain
9:15 PM 45.5 °F 42.5 °F 43.0 °F 91% 30.21 in 3.0 mi East 5.8 mph - N/A Rain Light Rain
9:35 PM 45.1 °F 40.3 °F 43.3 °F 93% 30.20 in 3.0 mi East 9.2 mph - N/A Rain Light Rain
9:55 PM 45.1 °F 40.3 °F 43.7 °F 95% 30.18 in 3.0 mi East 9.2 mph - 0.01 in Rain Rain
10:15 PM 45.5 °F 41.8 °F 43.9 °F 94% 30.18 in 5.0 mi East 6.9 mph - N/A Rain Rain
10:35 PM 45.5 °F 40.8 °F 43.9 °F 94% 30.16 in 7.0 mi East 9.2 mph - N/A   Light Drizzle
10:55 PM 45.7 °F 42.0 °F 43.3 °F 92% 30.15 in 7.0 mi East 6.9 mph - N/A   Overcast
11:15 PM 45.7 °F 42.0 °F 42.8 °F 90% 30.15 in 7.0 mi ENE 6.9 mph - N/A   Overcast
11:35 PM 45.7 °F 41.0 °F 40.8 °F 83% 30.15 in 7.0 mi ENE 9.2 mph - N/A   Overcast
11:55 PM 45.5 °F 40.3 °F 40.3 °F 82% 30.15 in 4.0 mi ENE 10.4 mph - N/A   Drizzle